UAE78P EIDW-OMDB
Flight info
| Callsign | UAE78P |
|---|---|
| Flight time | 7h 45m |
| Altitude | 33000 |
| Route | ENDEQ1E ENDEQ Q36 ALAVA Z195 MALUD UL975 WAL M16 DOLAS DCT NAVPI DCT DODEN DCT NEGIX DCT DINKU DCT BESNI DCT GOMIG DCT GOLVA DCT ADULA DCT NEVAK DCT NISVA DCT OTKOK N131 RODIP DCT BELGI/N0479F350 UN131 KULAR UT39 TOMBI DCT SAFTA L324 LAKTO L560 SERMA L550 KARIK B411 DEESA Y415 NIMAR G662 KSA M440 SITER DCT RIBOT M550 GOLGU DCT PEKEM M628 RIGIL G783 ASPED Q308 KIPOK Q568 IMPED |
| Aircraft | B77W/H-SDE2E3GHIJ1J3J4J5M1P2RWXYZ/LB1D1 |
Departure
| Time | 2026-05-04 09:49 |
|---|---|
| Airport | Dublin Airport (EIDW) |
Arrival
| Time | 2026-05-04 17:34 |
|---|---|
| Airport | Dubai International Airport (OMDB) |
| Time | Latitude | Longitude | Altitude | Speed | Heading |
|---|---|---|---|---|---|
| 2026-05-04 08:43 | 53.42504 | -6.24284 | 220 ft | 0 kts | 135° |
| 2026-05-04 09:29 | 53.42520 | -6.24312 | 219 ft | 4 kts | 121° |
| 2026-05-04 09:29 | 53.42529 | -6.24352 | 218 ft | 4 kts | 91° |
| 2026-05-04 09:29 | 53.42525 | -6.24388 | 217 ft | 4 kts | 60° |
| 2026-05-04 09:29 | 53.42509 | -6.24423 | 224 ft | 4 kts | 43° |
| 2026-05-04 09:30 | 53.42499 | -6.24439 | 221 ft | 4 kts | 44° |
| 2026-05-04 09:30 | 53.42492 | -6.24449 | 224 ft | 3 kts | 46° |
| 2026-05-04 09:30 | 53.42474 | -6.24483 | 218 ft | 4 kts | 52° |
| 2026-05-04 09:30 | 53.42458 | -6.24520 | 218 ft | 4 kts | 58° |
| 2026-05-04 09:31 | 53.42445 | -6.24559 | 218 ft | 4 kts | 64° |
| 2026-05-04 09:31 | 53.42434 | -6.24600 | 221 ft | 4 kts | 71° |
| 2026-05-04 09:31 | 53.42427 | -6.24644 | 218 ft | 4 kts | 78° |
| 2026-05-04 09:31 | 53.42423 | -6.24688 | 219 ft | 4 kts | 90° |
| 2026-05-04 09:32 | 53.42427 | -6.24731 | 218 ft | 4 kts | 119° |
| 2026-05-04 09:32 | 53.42444 | -6.24756 | 224 ft | 4 kts | 156° |
| 2026-05-04 09:34 | 53.42485 | -6.24786 | 219 ft | 0 kts | 156° |
| 2026-05-04 09:37 | 53.42480 | -6.24782 | 219 ft | 4 kts | 156° |
| 2026-05-04 09:37 | 53.42424 | -6.24745 | 219 ft | 10 kts | 166° |
| 2026-05-04 09:38 | 53.42364 | -6.24789 | 225 ft | 10 kts | 246° |
| 2026-05-04 09:38 | 53.42398 | -6.24884 | 221 ft | 11 kts | 328° |
| 2026-05-04 09:38 | 53.42470 | -6.24941 | 221 ft | 12 kts | 336° |
| 2026-05-04 09:38 | 53.42547 | -6.24996 | 218 ft | 12 kts | 337° |
| 2026-05-04 09:39 | 53.42619 | -6.25047 | 221 ft | 11 kts | 336° |
| 2026-05-04 09:39 | 53.42663 | -6.25080 | 223 ft | 0 kts | 336° |
| 2026-05-04 09:39 | 53.42671 | -6.25086 | 221 ft | 4 kts | 336° |
| 2026-05-04 09:40 | 53.42708 | -6.25141 | 224 ft | 8 kts | 308° |
| 2026-05-04 09:40 | 53.42749 | -6.25210 | 224 ft | 9 kts | 315° |
| 2026-05-04 09:40 | 53.42745 | -6.25331 | 224 ft | 15 kts | 230° |
| 2026-05-04 09:40 | 53.42674 | -6.25457 | 221 ft | 13 kts | 226° |
| 2026-05-04 09:41 | 53.42610 | -6.25567 | 224 ft | 13 kts | 225° |
| 2026-05-04 09:42 | 53.42291 | -6.26739 | 216 ft | 18 kts | 276° |
| 2026-05-04 09:43 | 53.42302 | -6.26938 | 215 ft | 17 kts | 275° |
| 2026-05-04 09:43 | 53.42313 | -6.27136 | 221 ft | 17 kts | 275° |
| 2026-05-04 09:43 | 53.42324 | -6.27335 | 219 ft | 17 kts | 275° |
| 2026-05-04 09:43 | 53.42332 | -6.27469 | 215 ft | 17 kts | 276° |
| 2026-05-04 09:44 | 53.42342 | -6.27663 | 215 ft | 17 kts | 275° |
| 2026-05-04 09:44 | 53.42353 | -6.27869 | 222 ft | 17 kts | 275° |
| 2026-05-04 09:44 | 53.42364 | -6.28067 | 220 ft | 17 kts | 275° |
| 2026-05-04 09:46 | 53.42254 | -6.29043 | 217 ft | 8 kts | 139° |
| 2026-05-04 09:46 | 53.42242 | -6.28994 | 222 ft | 0 kts | 96° |
| 2026-05-04 09:47 | 53.42241 | -6.28973 | 220 ft | 10 kts | 95° |
| 2026-05-04 09:49 | 53.41427 | -6.13994 | 3339 ft | 252 kts | 93° |
| 2026-05-04 09:49 | 53.41255 | -6.11020 | 4014 ft | 259 kts | 93° |
| 2026-05-04 09:49 | 53.41084 | -6.08013 | 4896 ft | 259 kts | 92° |
| 2026-05-04 09:51 | 53.41937 | -5.89290 | 9142 ft | 282 kts | 82° |
| 2026-05-04 09:51 | 53.42164 | -5.86008 | 9851 ft | 285 kts | 83° |
| 2026-05-04 09:51 | 53.42390 | -5.82673 | 10448 ft | 293 kts | 83° |
| 2026-05-04 09:51 | 53.42629 | -5.79147 | 10629 ft | 316 kts | 83° |
| 2026-05-04 09:52 | 53.42887 | -5.75392 | 11016 ft | 331 kts | 82° |
| 2026-05-04 09:52 | 53.43152 | -5.71513 | 11618 ft | 339 kts | 82° |
| 2026-05-04 09:52 | 53.43422 | -5.67558 | 12329 ft | 343 kts | 83° |
| 2026-05-04 09:52 | 53.43691 | -5.63568 | 13125 ft | 346 kts | 82° |
| 2026-05-04 09:53 | 53.43964 | -5.59547 | 13923 ft | 349 kts | 82° |
| 2026-05-04 09:53 | 53.44236 | -5.55484 | 14615 ft | 353 kts | 82° |
| 2026-05-04 09:53 | 53.44509 | -5.51383 | 15331 ft | 354 kts | 82° |
| 2026-05-04 09:53 | 53.44682 | -5.47231 | 15869 ft | 365 kts | 88° |
| 2026-05-04 09:54 | 53.44593 | -5.42851 | 16045 ft | 384 kts | 92° |
| 2026-05-04 09:54 | 53.44402 | -5.38319 | 16531 ft | 394 kts | 92° |
| 2026-05-04 09:54 | 53.44212 | -5.33698 | 17137 ft | 400 kts | 92° |
| 2026-05-04 09:54 | 53.44049 | -5.29022 | 17794 ft | 404 kts | 91° |
| 2026-05-04 09:55 | 53.43909 | -5.24300 | 18546 ft | 406 kts | 91° |
| 2026-05-04 09:55 | 53.43779 | -5.19626 | 19174 ft | 408 kts | 91° |
| 2026-05-04 09:55 | 53.43646 | -5.14841 | 19751 ft | 412 kts | 91° |
| 2026-05-04 09:55 | 53.43510 | -5.10019 | 20342 ft | 416 kts | 91° |
| 2026-05-04 09:56 | 53.43369 | -5.05167 | 20947 ft | 419 kts | 91° |
| 2026-05-04 09:56 | 53.43226 | -5.00276 | 21540 ft | 421 kts | 91° |
| 2026-05-04 09:56 | 53.43081 | -4.95353 | 22151 ft | 424 kts | 91° |
| 2026-05-04 09:56 | 53.42932 | -4.90403 | 22751 ft | 426 kts | 91° |
| 2026-05-04 09:57 | 53.42780 | -4.85419 | 23335 ft | 429 kts | 91° |
| 2026-05-04 09:57 | 53.42617 | -4.80419 | 23863 ft | 431 kts | 91° |
| 2026-05-04 09:57 | 53.42444 | -4.75377 | 24346 ft | 434 kts | 91° |
| 2026-05-04 09:57 | 53.42267 | -4.70327 | 24827 ft | 435 kts | 91° |
| 2026-05-04 09:58 | 53.42088 | -4.65253 | 25308 ft | 437 kts | 91° |
| 2026-05-04 09:58 | 53.41906 | -4.60160 | 25779 ft | 439 kts | 91° |
| 2026-05-04 09:58 | 53.41723 | -4.55047 | 26230 ft | 441 kts | 91° |
| 2026-05-04 10:00 | 53.40358 | -4.18611 | 29094 ft | 454 kts | 90° |
| 2026-05-04 10:00 | 53.40151 | -4.13317 | 29434 ft | 456 kts | 90° |
| 2026-05-04 10:02 | 53.40519 | -3.76817 | 32183 ft | 442 kts | 82° |
| 2026-05-04 10:04 | 53.40434 | -3.40724 | 33077 ft | 444 kts | 91° |
| 2026-05-04 10:04 | 53.39968 | -3.30377 | 33078 ft | 443 kts | 91° |
| 2026-05-04 10:05 | 53.39508 | -3.20094 | 33074 ft | 443 kts | 91° |
| 2026-05-04 10:05 | 53.39046 | -3.09811 | 33081 ft | 443 kts | 91° |
| 2026-05-04 10:06 | 53.38661 | -2.99482 | 33078 ft | 445 kts | 91° |
| 2026-05-04 10:06 | 53.38286 | -2.89209 | 33078 ft | 448 kts | 91° |
| 2026-05-04 10:08 | 53.36824 | -2.52563 | 33068 ft | 452 kts | 92° |
| 2026-05-04 10:08 | 53.36382 | -2.42052 | 33085 ft | 453 kts | 92° |
| 2026-05-04 10:09 | 53.35933 | -2.31530 | 33069 ft | 454 kts | 92° |
| 2026-05-04 10:09 | 53.35231 | -2.21036 | 33078 ft | 455 kts | 97° |
| 2026-05-04 10:10 | 53.34120 | -2.10613 | 33074 ft | 455 kts | 98° |
| 2026-05-04 10:10 | 53.33019 | -2.00197 | 33072 ft | 455 kts | 98° |
| 2026-05-04 10:11 | 53.31926 | -1.89753 | 33075 ft | 456 kts | 98° |
| 2026-05-04 10:11 | 53.30824 | -1.79291 | 33084 ft | 458 kts | 98° |
| 2026-05-04 10:12 | 53.29711 | -1.68801 | 33071 ft | 459 kts | 98° |
| 2026-05-04 10:12 | 53.28585 | -1.58310 | 33077 ft | 459 kts | 98° |
| 2026-05-04 10:13 | 53.27459 | -1.47885 | 33071 ft | 460 kts | 98° |
| 2026-05-04 10:13 | 53.26314 | -1.37359 | 33085 ft | 461 kts | 99° |
| 2026-05-04 10:14 | 53.25156 | -1.26807 | 33069 ft | 462 kts | 99° |
| 2026-05-04 10:16 | 53.20398 | -0.84320 | 33061 ft | 470 kts | 100° |
| 2026-05-04 10:16 | 53.19170 | -0.73589 | 33052 ft | 471 kts | 100° |
| 2026-05-04 10:17 | 53.17933 | -0.62854 | 33047 ft | 472 kts | 100° |
| 2026-05-04 10:19 | 53.12903 | -0.20051 | 33045 ft | 469 kts | 101° |
| 2026-05-04 10:19 | 53.11627 | -0.09410 | 33052 ft | 468 kts | 101° |
| 2026-05-04 10:20 | 53.10343 | 0.01212 | 33059 ft | 469 kts | 101° |
| 2026-05-04 10:20 | 53.09033 | 0.11961 | 33066 ft | 479 kts | 101° |
| 2026-05-04 10:21 | 53.07692 | 0.22878 | 33055 ft | 483 kts | 101° |
| 2026-05-04 10:21 | 53.06338 | 0.33811 | 33052 ft | 482 kts | 101° |
| 2026-05-04 10:22 | 53.04296 | 0.50139 | 33047 ft | 480 kts | 102° |
| 2026-05-04 10:23 | 53.02927 | 0.60990 | 33045 ft | 480 kts | 102° |
| 2026-05-04 10:25 | 52.97012 | 1.04507 | 33030 ft | 486 kts | 112° |
| 2026-05-04 10:25 | 52.94602 | 1.14977 | 33049 ft | 487 kts | 112° |
| 2026-05-04 10:26 | 52.92184 | 1.25398 | 33046 ft | 488 kts | 112° |
| 2026-05-04 10:26 | 52.89768 | 1.35913 | 33040 ft | 489 kts | 112° |
| 2026-05-04 10:27 | 52.87357 | 1.46436 | 33041 ft | 489 kts | 112° |
| 2026-05-04 10:27 | 52.84941 | 1.56942 | 33025 ft | 488 kts | 113° |
| 2026-05-04 10:28 | 52.82511 | 1.67442 | 33044 ft | 489 kts | 113° |
| 2026-05-04 10:28 | 52.80067 | 1.77947 | 33045 ft | 490 kts | 113° |
| 2026-05-04 10:29 | 52.77608 | 1.88467 | 33029 ft | 491 kts | 113° |
| 2026-05-04 10:29 | 52.75167 | 1.98857 | 33028 ft | 492 kts | 113° |
| 2026-05-04 10:30 | 52.72683 | 2.09386 | 33029 ft | 492 kts | 115° |
| 2026-05-04 10:30 | 52.70187 | 2.19910 | 33033 ft | 494 kts | 115° |
| 2026-05-04 10:31 | 52.67675 | 2.30446 | 33024 ft | 494 kts | 115° |
| 2026-05-04 10:32 | 52.59235 | 2.65491 | 33016 ft | 494 kts | 115° |
| 2026-05-04 10:33 | 52.56687 | 2.75974 | 33027 ft | 494 kts | 115° |
| 2026-05-04 10:33 | 52.54016 | 2.86386 | 33010 ft | 492 kts | 121° |
| 2026-05-04 10:34 | 52.50728 | 2.96209 | 33011 ft | 490 kts | 123° |
| 2026-05-04 10:34 | 52.47402 | 3.05958 | 33001 ft | 489 kts | 123° |
| 2026-05-04 10:35 | 52.44094 | 3.15706 | 33022 ft | 489 kts | 123° |
| 2026-05-04 10:35 | 52.40819 | 3.25381 | 33011 ft | 490 kts | 123° |
| 2026-05-04 10:36 | 52.37518 | 3.35116 | 32997 ft | 491 kts | 123° |
| 2026-05-04 10:36 | 52.34194 | 3.44876 | 33009 ft | 493 kts | 123° |
| 2026-05-04 10:37 | 52.30860 | 3.54627 | 33007 ft | 492 kts | 124° |
| 2026-05-04 10:37 | 52.27513 | 3.64374 | 33002 ft | 492 kts | 124° |
| 2026-05-04 10:39 | 52.15736 | 3.98374 | 32987 ft | 490 kts | 125° |
| 2026-05-04 10:40 | 52.12367 | 4.08018 | 32999 ft | 490 kts | 125° |
| 2026-05-04 10:40 | 52.08995 | 4.17628 | 32989 ft | 489 kts | 125° |
| 2026-05-04 10:41 | 52.05686 | 4.27022 | 32990 ft | 489 kts | 125° |
| 2026-05-04 10:41 | 52.02273 | 4.36678 | 33003 ft | 491 kts | 125° |
| 2026-05-04 10:42 | 51.98864 | 4.46284 | 32991 ft | 492 kts | 125° |
| 2026-05-04 10:42 | 51.95468 | 4.55822 | 32979 ft | 491 kts | 126° |
| 2026-05-04 10:43 | 51.92047 | 4.65395 | 33013 ft | 490 kts | 126° |
| 2026-05-04 10:45 | 51.78346 | 5.03359 | 32972 ft | 487 kts | 126° |
| 2026-05-04 10:45 | 51.74919 | 5.12768 | 32989 ft | 486 kts | 126° |
| 2026-05-04 10:46 | 51.71478 | 5.22177 | 32987 ft | 486 kts | 126° |
| 2026-05-04 10:46 | 51.68034 | 5.31562 | 32971 ft | 487 kts | 127° |
| 2026-05-04 10:47 | 51.64581 | 5.40935 | 32987 ft | 487 kts | 126° |
| 2026-05-04 10:47 | 51.61116 | 5.50307 | 32988 ft | 488 kts | 127° |
| 2026-05-04 10:49 | 51.47114 | 5.87836 | 32987 ft | 490 kts | 127° |
| 2026-05-04 10:50 | 51.43587 | 5.97204 | 32989 ft | 491 kts | 127° |
| 2026-05-04 10:52 | 51.29431 | 6.34459 | 32992 ft | 487 kts | 127° |
| 2026-05-04 10:52 | 51.25897 | 6.43676 | 32995 ft | 487 kts | 127° |
| 2026-05-04 10:54 | 51.11600 | 6.80629 | 32983 ft | 488 kts | 127° |
| 2026-05-04 10:56 | 50.97302 | 7.17059 | 32986 ft | 486 kts | 128° |
| 2026-05-04 10:57 | 50.93702 | 7.26151 | 32998 ft | 487 kts | 128° |
| 2026-05-04 10:57 | 50.90087 | 7.35252 | 32991 ft | 488 kts | 128° |
| 2026-05-04 10:58 | 50.86456 | 7.44359 | 32990 ft | 489 kts | 128° |
| 2026-05-04 10:58 | 50.82814 | 7.53462 | 32967 ft | 490 kts | 128° |
| 2026-05-04 10:59 | 50.79163 | 7.62555 | 32984 ft | 490 kts | 128° |
| 2026-05-04 10:59 | 50.75499 | 7.71651 | 33004 ft | 491 kts | 128° |
| 2026-05-04 11:00 | 50.71822 | 7.80748 | 33008 ft | 491 kts | 128° |
| 2026-05-04 11:02 | 50.56696 | 8.16479 | 32987 ft | 485 kts | 134° |
| 2026-05-04 11:05 | 50.23924 | 8.76408 | 32995 ft | 480 kts | 138° |
| 2026-05-04 11:06 | 50.19360 | 8.83996 | 32999 ft | 479 kts | 138° |
| 2026-05-04 11:06 | 50.14799 | 8.91564 | 32998 ft | 479 kts | 138° |
| 2026-05-04 11:10 | 49.82780 | 9.44049 | 33000 ft | 480 kts | 139° |
| 2026-05-04 11:12 | 49.64320 | 9.73823 | 33017 ft | 480 kts | 138° |
| 2026-05-04 11:12 | 49.59692 | 9.81232 | 33019 ft | 480 kts | 139° |
| 2026-05-04 11:13 | 49.55054 | 9.88636 | 33019 ft | 480 kts | 139° |
| 2026-05-04 11:13 | 49.50416 | 9.96019 | 33012 ft | 479 kts | 138° |
| 2026-05-04 11:14 | 49.46559 | 10.02144 | 33027 ft | 480 kts | 138° |
| 2026-05-04 11:16 | 49.27931 | 10.31516 | 33005 ft | 480 kts | 138° |
| 2026-05-04 11:16 | 49.23268 | 10.38815 | 33042 ft | 479 kts | 139° |
| 2026-05-04 11:17 | 49.18518 | 10.45968 | 33049 ft | 479 kts | 140° |
| 2026-05-04 11:19 | 48.99289 | 10.74338 | 33049 ft | 481 kts | 140° |
| 2026-05-04 11:19 | 48.94469 | 10.81425 | 33043 ft | 482 kts | 140° |
| 2026-05-04 11:20 | 48.89644 | 10.88501 | 33023 ft | 482 kts | 140° |
| 2026-05-04 11:20 | 48.84811 | 10.95568 | 33029 ft | 482 kts | 140° |
| 2026-05-04 11:22 | 48.65571 | 11.24007 | 33019 ft | 487 kts | 132° |
| 2026-05-04 11:23 | 48.61777 | 11.32534 | 33018 ft | 493 kts | 121° |
| 2026-05-04 11:25 | 48.50817 | 11.64784 | 33018 ft | 496 kts | 121° |
| 2026-05-04 11:25 | 48.47624 | 11.74003 | 32998 ft | 496 kts | 120° |
| 2026-05-04 11:27 | 48.33268 | 12.15073 | 32987 ft | 494 kts | 120° |
| 2026-05-04 11:28 | 48.30048 | 12.24197 | 33001 ft | 495 kts | 120° |
| 2026-05-04 11:28 | 48.26818 | 12.33321 | 33000 ft | 495 kts | 120° |
| 2026-05-04 11:29 | 48.23572 | 12.42456 | 33000 ft | 496 kts | 120° |
| 2026-05-04 11:29 | 48.20321 | 12.51574 | 33003 ft | 496 kts | 120° |
| 2026-05-04 11:33 | 47.94261 | 13.12020 | 33003 ft | 495 kts | 127° |
| 2026-05-04 11:33 | 47.90329 | 13.20464 | 32998 ft | 496 kts | 127° |
| 2026-05-04 11:34 | 47.86391 | 13.28892 | 33001 ft | 496 kts | 126° |
| 2026-05-04 11:34 | 47.82448 | 13.37304 | 32995 ft | 495 kts | 127° |
| 2026-05-04 11:35 | 47.78504 | 13.45693 | 33000 ft | 495 kts | 127° |
| 2026-05-04 11:35 | 47.74556 | 13.54063 | 33002 ft | 494 kts | 127° |
| 2026-05-04 11:36 | 47.70605 | 13.62414 | 32993 ft | 494 kts | 126° |
| 2026-05-04 11:36 | 47.66676 | 13.70693 | 32999 ft | 494 kts | 127° |
| 2026-05-04 11:37 | 47.62717 | 13.79009 | 32997 ft | 493 kts | 127° |
| 2026-05-04 11:37 | 47.58757 | 13.87305 | 33011 ft | 493 kts | 127° |
| 2026-05-04 11:38 | 47.54798 | 13.95572 | 33004 ft | 493 kts | 126° |
| 2026-05-04 11:38 | 47.50830 | 14.03834 | 33021 ft | 492 kts | 127° |
| 2026-05-04 11:39 | 47.46857 | 14.12079 | 33017 ft | 492 kts | 127° |
| 2026-05-04 11:41 | 47.32912 | 14.40831 | 33037 ft | 493 kts | 127° |
| 2026-05-04 11:41 | 47.28907 | 14.49036 | 33042 ft | 494 kts | 127° |
| 2026-05-04 11:42 | 47.24885 | 14.57248 | 33046 ft | 495 kts | 127° |
| 2026-05-04 11:42 | 47.20853 | 14.65457 | 33038 ft | 496 kts | 126° |
| 2026-05-04 11:43 | 47.16810 | 14.73662 | 33045 ft | 496 kts | 127° |
| 2026-05-04 11:43 | 47.12794 | 14.81790 | 33058 ft | 496 kts | 127° |
| 2026-05-04 11:44 | 47.08705 | 14.90043 | 33046 ft | 497 kts | 127° |
| 2026-05-04 11:44 | 47.04664 | 14.98172 | 33058 ft | 496 kts | 126° |
| 2026-05-04 11:45 | 47.00595 | 15.06336 | 33043 ft | 496 kts | 127° |
| 2026-05-04 11:45 | 46.96520 | 15.14486 | 33053 ft | 495 kts | 127° |
| 2026-05-04 11:46 | 46.92449 | 15.22606 | 33035 ft | 494 kts | 127° |
| 2026-05-04 11:46 | 46.88379 | 15.30698 | 33055 ft | 494 kts | 126° |
| 2026-05-04 11:47 | 46.84301 | 15.38784 | 33044 ft | 494 kts | 126° |
| 2026-05-04 11:47 | 46.80216 | 15.46861 | 33041 ft | 495 kts | 127° |
| 2026-05-04 11:48 | 46.76124 | 15.54930 | 33049 ft | 495 kts | 127° |
| 2026-05-04 11:48 | 46.72026 | 15.62988 | 33047 ft | 495 kts | 127° |
| 2026-05-04 11:49 | 46.68083 | 15.71219 | 33056 ft | 495 kts | 123° |
| 2026-05-04 11:49 | 46.64277 | 15.79590 | 33042 ft | 496 kts | 123° |
| 2026-05-04 11:50 | 46.60467 | 15.87959 | 33051 ft | 496 kts | 123° |
| 2026-05-04 11:50 | 46.56634 | 15.96315 | 33052 ft | 497 kts | 123° |
| 2026-05-04 11:51 | 46.52784 | 16.04658 | 33068 ft | 497 kts | 124° |
| 2026-05-04 11:51 | 46.48930 | 16.12980 | 33049 ft | 497 kts | 124° |
| 2026-05-04 11:52 | 46.45069 | 16.21291 | 33064 ft | 496 kts | 124° |
| 2026-05-04 11:52 | 46.41208 | 16.29583 | 33067 ft | 496 kts | 123° |
| 2026-05-04 11:53 | 46.37344 | 16.37855 | 33065 ft | 496 kts | 123° |
| 2026-05-04 11:53 | 46.33476 | 16.46111 | 33069 ft | 495 kts | 123° |
| 2026-05-04 11:55 | 46.17960 | 16.78992 | 33083 ft | 495 kts | 123° |
| 2026-05-04 11:56 | 46.14064 | 16.87186 | 33072 ft | 495 kts | 123° |
| 2026-05-04 11:56 | 46.10164 | 16.95367 | 33094 ft | 495 kts | 124° |
| 2026-05-04 11:57 | 46.06254 | 17.03542 | 33079 ft | 495 kts | 124° |
| 2026-05-04 11:57 | 46.03004 | 17.10323 | 33081 ft | 495 kts | 124° |
| 2026-05-04 11:58 | 45.99158 | 17.18321 | 33095 ft | 495 kts | 124° |
| 2026-05-04 11:58 | 45.95241 | 17.26447 | 33101 ft | 495 kts | 124° |
| 2026-05-04 11:59 | 45.91315 | 17.34569 | 33087 ft | 495 kts | 124° |
| 2026-05-04 11:59 | 45.87381 | 17.42681 | 33093 ft | 495 kts | 124° |
| 2026-05-04 12:00 | 45.83443 | 17.50780 | 33094 ft | 495 kts | 124° |
| 2026-05-04 12:00 | 45.79501 | 17.58865 | 33103 ft | 495 kts | 124° |
| 2026-05-04 12:01 | 45.75550 | 17.66944 | 33101 ft | 496 kts | 124° |
| 2026-05-04 12:02 | 45.62321 | 17.93827 | 33109 ft | 496 kts | 124° |
| 2026-05-04 12:03 | 45.58336 | 18.01877 | 33106 ft | 497 kts | 124° |
| 2026-05-04 12:03 | 45.54342 | 18.09921 | 33114 ft | 496 kts | 124° |
| 2026-05-04 12:04 | 45.50344 | 18.17951 | 33108 ft | 496 kts | 124° |
| 2026-05-04 12:04 | 45.46342 | 18.25966 | 33107 ft | 496 kts | 124° |
| 2026-05-04 12:05 | 45.42330 | 18.33976 | 33113 ft | 496 kts | 124° |
| 2026-05-04 12:05 | 45.38319 | 18.41967 | 33115 ft | 497 kts | 124° |
| 2026-05-04 12:06 | 45.34298 | 18.49952 | 33121 ft | 497 kts | 123° |
| 2026-05-04 12:06 | 45.30268 | 18.57938 | 33112 ft | 497 kts | 123° |
| 2026-05-04 12:07 | 45.26225 | 18.65914 | 33111 ft | 498 kts | 124° |
| 2026-05-04 12:07 | 45.22110 | 18.73810 | 33112 ft | 498 kts | 124° |
| 2026-05-04 12:08 | 45.17960 | 18.81674 | 33124 ft | 498 kts | 124° |
| 2026-05-04 12:08 | 45.13813 | 18.89535 | 33114 ft | 498 kts | 124° |
| 2026-05-04 12:09 | 45.09670 | 18.97392 | 33113 ft | 498 kts | 124° |
| 2026-05-04 12:09 | 45.05528 | 19.05231 | 33112 ft | 497 kts | 124° |
| 2026-05-04 12:10 | 45.01381 | 19.13056 | 33114 ft | 497 kts | 124° |
| 2026-05-04 12:10 | 44.97230 | 19.20867 | 33115 ft | 497 kts | 124° |
| 2026-05-04 12:11 | 44.93076 | 19.28663 | 33114 ft | 497 kts | 124° |
| 2026-05-04 12:11 | 44.88918 | 19.36444 | 33106 ft | 497 kts | 125° |
| 2026-05-04 12:12 | 44.84746 | 19.44228 | 33118 ft | 498 kts | 124° |
| 2026-05-04 12:12 | 44.80566 | 19.52010 | 33115 ft | 498 kts | 124° |
| 2026-05-04 12:14 | 44.63762 | 19.83073 | 33118 ft | 499 kts | 124° |
| 2026-05-04 12:15 | 44.59544 | 19.90819 | 33120 ft | 499 kts | 124° |
| 2026-05-04 12:15 | 44.55321 | 19.98553 | 33143 ft | 499 kts | 124° |
| 2026-05-04 12:16 | 44.51092 | 20.06276 | 33124 ft | 499 kts | 124° |
| 2026-05-04 12:16 | 44.46860 | 20.13984 | 33128 ft | 499 kts | 124° |
| 2026-05-04 12:17 | 44.42623 | 20.21681 | 33130 ft | 499 kts | 124° |
| 2026-05-04 12:17 | 44.38414 | 20.29310 | 33142 ft | 499 kts | 124° |
| 2026-05-04 12:18 | 44.34174 | 20.36972 | 33140 ft | 498 kts | 124° |
| 2026-05-04 12:18 | 44.29962 | 20.44563 | 33129 ft | 498 kts | 124° |
| 2026-05-04 12:19 | 44.25714 | 20.52202 | 33127 ft | 498 kts | 124° |
| 2026-05-04 12:19 | 44.21463 | 20.59826 | 33138 ft | 498 kts | 124° |
| 2026-05-04 12:20 | 44.17244 | 20.67490 | 33140 ft | 498 kts | 123° |
| 2026-05-04 12:20 | 44.13065 | 20.75178 | 33142 ft | 498 kts | 123° |
| 2026-05-04 12:21 | 44.08879 | 20.82861 | 33162 ft | 498 kts | 123° |
| 2026-05-04 12:21 | 44.04675 | 20.90533 | 33139 ft | 498 kts | 123° |
| 2026-05-04 12:22 | 44.00467 | 20.98185 | 33135 ft | 498 kts | 123° |
| 2026-05-04 12:22 | 43.96255 | 21.05824 | 33132 ft | 498 kts | 124° |
| 2026-05-04 12:23 | 43.92041 | 21.13448 | 33146 ft | 498 kts | 123° |
| 2026-05-04 12:23 | 43.87824 | 21.21055 | 33131 ft | 497 kts | 123° |
| 2026-05-04 12:24 | 43.83637 | 21.28589 | 33133 ft | 496 kts | 124° |
| 2026-05-04 12:24 | 43.79425 | 21.36150 | 33127 ft | 495 kts | 124° |
| 2026-05-04 12:25 | 43.75217 | 21.43682 | 33135 ft | 494 kts | 124° |
| 2026-05-04 12:25 | 43.71019 | 21.51179 | 33125 ft | 493 kts | 124° |
| 2026-05-04 12:26 | 43.66823 | 21.58652 | 33118 ft | 492 kts | 124° |
| 2026-05-04 12:26 | 43.62620 | 21.66121 | 33146 ft | 492 kts | 124° |
| 2026-05-04 12:27 | 43.58414 | 21.73575 | 33122 ft | 492 kts | 124° |
| 2026-05-04 12:27 | 43.54205 | 21.81014 | 33124 ft | 491 kts | 124° |
| 2026-05-04 12:28 | 43.50000 | 21.88428 | 33127 ft | 491 kts | 124° |
| 2026-05-04 12:28 | 43.45790 | 21.95831 | 33147 ft | 491 kts | 124° |
| 2026-05-04 12:29 | 43.41575 | 22.03228 | 33143 ft | 491 kts | 124° |
| 2026-05-04 12:29 | 43.37351 | 22.10617 | 33139 ft | 492 kts | 124° |
| 2026-05-04 12:30 | 43.33112 | 22.18019 | 33129 ft | 493 kts | 124° |
| 2026-05-04 12:30 | 43.28865 | 22.25411 | 33113 ft | 493 kts | 124° |
| 2026-05-04 12:31 | 43.24623 | 22.32776 | 33103 ft | 491 kts | 125° |
| 2026-05-04 12:31 | 43.20391 | 22.40105 | 33112 ft | 489 kts | 125° |
| 2026-05-04 12:32 | 43.13904 | 22.50846 | 33110 ft | 488 kts | 133° |
| 2026-05-04 12:33 | 43.09018 | 22.57260 | 33109 ft | 486 kts | 134° |
| 2026-05-04 12:33 | 43.04133 | 22.63621 | 33105 ft | 485 kts | 133° |
| 2026-05-04 12:34 | 42.99262 | 22.70018 | 33131 ft | 484 kts | 134° |
| 2026-05-04 12:34 | 42.94421 | 22.76397 | 33106 ft | 483 kts | 134° |
| 2026-05-04 12:35 | 42.89603 | 22.82738 | 33101 ft | 480 kts | 134° |
| 2026-05-04 12:35 | 42.84806 | 22.89036 | 33104 ft | 478 kts | 134° |
| 2026-05-04 12:36 | 42.80013 | 22.95313 | 33117 ft | 477 kts | 134° |
| 2026-05-04 12:36 | 42.75225 | 23.01570 | 33109 ft | 476 kts | 134° |
| 2026-05-04 12:37 | 42.70447 | 23.07797 | 33117 ft | 475 kts | 134° |
| 2026-05-04 12:37 | 42.65675 | 23.14004 | 33121 ft | 475 kts | 134° |
| 2026-05-04 12:38 | 42.60931 | 23.20160 | 33122 ft | 466 kts | 135° |
| 2026-05-04 12:38 | 42.56289 | 23.26169 | 33132 ft | 459 kts | 134° |
| 2026-05-04 12:39 | 42.51667 | 23.32144 | 33124 ft | 460 kts | 135° |
| 2026-05-04 12:39 | 42.47025 | 23.38131 | 33117 ft | 462 kts | 135° |
| 2026-05-04 12:40 | 42.42377 | 23.44110 | 33126 ft | 465 kts | 135° |
| 2026-05-04 12:40 | 42.37693 | 23.50123 | 33123 ft | 464 kts | 136° |
| 2026-05-04 12:41 | 42.33024 | 23.56104 | 33113 ft | 461 kts | 136° |
| 2026-05-04 12:41 | 42.28372 | 23.62050 | 33102 ft | 459 kts | 136° |
| 2026-05-04 12:42 | 42.23741 | 23.67956 | 33101 ft | 458 kts | 136° |
| 2026-05-04 12:42 | 42.19114 | 23.73845 | 33106 ft | 456 kts | 136° |
| 2026-05-04 12:43 | 42.14494 | 23.79713 | 33100 ft | 456 kts | 136° |
| 2026-05-04 12:43 | 42.09868 | 23.85577 | 33102 ft | 457 kts | 136° |
| 2026-05-04 12:44 | 42.05238 | 23.91433 | 33078 ft | 457 kts | 136° |
| 2026-05-04 12:44 | 42.00607 | 23.97277 | 33077 ft | 456 kts | 136° |
| 2026-05-04 12:45 | 41.95983 | 24.03103 | 33076 ft | 455 kts | 136° |
| 2026-05-04 12:45 | 41.91355 | 24.08918 | 33085 ft | 455 kts | 135° |
| 2026-05-04 12:46 | 41.86740 | 24.14707 | 33089 ft | 454 kts | 135° |
| 2026-05-04 12:46 | 41.82131 | 24.20477 | 33072 ft | 453 kts | 135° |
| 2026-05-04 12:47 | 41.77519 | 24.26239 | 33072 ft | 454 kts | 136° |
| 2026-05-04 12:47 | 41.73674 | 24.31033 | 33077 ft | 455 kts | 136° |
| 2026-05-04 12:48 | 41.69038 | 24.36801 | 33075 ft | 455 kts | 135° |
| 2026-05-04 12:48 | 41.64402 | 24.42559 | 33066 ft | 455 kts | 135° |
| 2026-05-04 12:49 | 41.59761 | 24.48311 | 33049 ft | 455 kts | 135° |
| 2026-05-04 12:49 | 41.55115 | 24.54058 | 33044 ft | 455 kts | 135° |
| 2026-05-04 12:50 | 41.50469 | 24.59794 | 33059 ft | 455 kts | 135° |
| 2026-05-04 12:50 | 41.45816 | 24.65529 | 33039 ft | 456 kts | 135° |
| 2026-05-04 12:51 | 41.41160 | 24.71267 | 33043 ft | 456 kts | 135° |
| 2026-05-04 12:51 | 41.36615 | 24.77158 | 33040 ft | 456 kts | 134° |
| 2026-05-04 12:52 | 41.32103 | 24.83112 | 33040 ft | 457 kts | 134° |
| 2026-05-04 12:52 | 41.27570 | 24.89056 | 33052 ft | 458 kts | 134° |
| 2026-05-04 12:53 | 41.23018 | 24.94983 | 33052 ft | 458 kts | 134° |
| 2026-05-04 12:53 | 41.18442 | 25.00919 | 33437 ft | 460 kts | 134° |
| 2026-05-04 12:53 | 41.16158 | 25.03875 | 33879 ft | 457 kts | 134° |
| 2026-05-04 12:54 | 41.13886 | 25.06815 | 34284 ft | 455 kts | 134° |
| 2026-05-04 12:54 | 41.11619 | 25.09745 | 34508 ft | 456 kts | 134° |
| 2026-05-04 12:54 | 41.09342 | 25.12687 | 34648 ft | 459 kts | 134° |
| 2026-05-04 12:54 | 41.07048 | 25.15648 | 34850 ft | 460 kts | 134° |
| 2026-05-04 12:55 | 41.04746 | 25.18615 | 34959 ft | 464 kts | 134° |
| 2026-05-04 12:55 | 41.00101 | 25.24594 | 35044 ft | 466 kts | 134° |
| 2026-05-04 12:56 | 40.95469 | 25.30540 | 35044 ft | 461 kts | 134° |
| 2026-05-04 12:56 | 40.90877 | 25.36424 | 35063 ft | 461 kts | 133° |
| 2026-05-04 12:57 | 40.86290 | 25.42292 | 35060 ft | 462 kts | 133° |
| 2026-05-04 12:57 | 40.81663 | 25.48198 | 35060 ft | 463 kts | 133° |
| 2026-05-04 12:58 | 40.77017 | 25.54117 | 35062 ft | 465 kts | 133° |
| 2026-05-04 12:58 | 40.72358 | 25.60039 | 35062 ft | 466 kts | 134° |
| 2026-05-04 12:59 | 40.67682 | 25.65971 | 35073 ft | 467 kts | 133° |
| 2026-05-04 12:59 | 40.63001 | 25.71898 | 35063 ft | 467 kts | 133° |
| 2026-05-04 13:00 | 40.58309 | 25.77827 | 35057 ft | 468 kts | 133° |
| 2026-05-04 13:00 | 40.53610 | 25.83754 | 35064 ft | 468 kts | 133° |
| 2026-05-04 13:01 | 40.48972 | 25.89743 | 35067 ft | 466 kts | 129° |
| 2026-05-04 13:01 | 40.44711 | 25.96140 | 35090 ft | 465 kts | 128° |
| 2026-05-04 13:02 | 40.40460 | 26.02547 | 35077 ft | 465 kts | 128° |
| 2026-05-04 13:02 | 40.36191 | 26.08931 | 35083 ft | 466 kts | 128° |
| 2026-05-04 13:03 | 40.31906 | 26.15308 | 35078 ft | 466 kts | 128° |
| 2026-05-04 13:03 | 40.27612 | 26.21682 | 35074 ft | 467 kts | 128° |
| 2026-05-04 13:04 | 40.23305 | 26.28064 | 35084 ft | 468 kts | 128° |
| 2026-05-04 13:04 | 40.19016 | 26.34409 | 35081 ft | 469 kts | 128° |
| 2026-05-04 13:05 | 40.14663 | 26.40836 | 35074 ft | 469 kts | 128° |
| 2026-05-04 13:05 | 40.10164 | 26.46958 | 35082 ft | 471 kts | 132° |
| 2026-05-04 13:06 | 40.05469 | 26.52926 | 35056 ft | 472 kts | 133° |
| 2026-05-04 13:06 | 40.00767 | 26.58905 | 35055 ft | 473 kts | 132° |
| 2026-05-04 13:07 | 39.96059 | 26.64917 | 35054 ft | 474 kts | 132° |
| 2026-05-04 13:07 | 39.91339 | 26.70944 | 35058 ft | 476 kts | 132° |
| 2026-05-04 13:08 | 39.86596 | 26.76986 | 35048 ft | 477 kts | 132° |
| 2026-05-04 13:08 | 39.81846 | 26.83024 | 35055 ft | 477 kts | 133° |
| 2026-05-04 13:09 | 39.77092 | 26.89054 | 35074 ft | 478 kts | 133° |
| 2026-05-04 13:09 | 39.72277 | 26.95032 | 35071 ft | 479 kts | 134° |
| 2026-05-04 13:10 | 39.67413 | 27.00977 | 35074 ft | 481 kts | 134° |
| 2026-05-04 13:10 | 39.62546 | 27.06934 | 35087 ft | 482 kts | 134° |
| 2026-05-04 13:11 | 39.57668 | 27.12909 | 35072 ft | 482 kts | 134° |
| 2026-05-04 13:11 | 39.52792 | 27.18870 | 35062 ft | 482 kts | 134° |
| 2026-05-04 13:12 | 39.48107 | 27.25046 | 35048 ft | 479 kts | 126° |
| 2026-05-04 13:12 | 39.43926 | 27.31753 | 35056 ft | 479 kts | 126° |
| 2026-05-04 13:13 | 39.39713 | 27.38436 | 35056 ft | 480 kts | 126° |
| 2026-05-04 13:13 | 39.35455 | 27.45094 | 35054 ft | 480 kts | 127° |
| 2026-05-04 13:14 | 39.31183 | 27.51740 | 35047 ft | 481 kts | 126° |
| 2026-05-04 13:14 | 39.26901 | 27.58390 | 35042 ft | 482 kts | 127° |
| 2026-05-04 13:15 | 39.22615 | 27.65039 | 35063 ft | 482 kts | 127° |
| 2026-05-04 13:15 | 39.18314 | 27.71698 | 35042 ft | 483 kts | 127° |
| 2026-05-04 13:16 | 39.14013 | 27.78344 | 35043 ft | 483 kts | 127° |
| 2026-05-04 13:16 | 39.09699 | 27.84997 | 35060 ft | 484 kts | 127° |
| 2026-05-04 13:17 | 39.05372 | 27.91650 | 35040 ft | 485 kts | 127° |
| 2026-05-04 13:17 | 39.01026 | 27.98313 | 35055 ft | 486 kts | 127° |
| 2026-05-04 13:18 | 38.96669 | 28.04983 | 35032 ft | 487 kts | 127° |
| 2026-05-04 13:18 | 38.92304 | 28.11653 | 35043 ft | 488 kts | 127° |
| 2026-05-04 13:19 | 38.87932 | 28.18319 | 35045 ft | 488 kts | 127° |
| 2026-05-04 13:19 | 38.83553 | 28.24984 | 35040 ft | 489 kts | 127° |
| 2026-05-04 13:20 | 38.79164 | 28.31650 | 35027 ft | 489 kts | 128° |
| 2026-05-04 13:20 | 38.74760 | 28.38323 | 35052 ft | 491 kts | 128° |
| 2026-05-04 13:21 | 38.70364 | 28.44972 | 35038 ft | 493 kts | 128° |
| 2026-05-04 13:21 | 38.65922 | 28.51676 | 35040 ft | 495 kts | 128° |
| 2026-05-04 13:22 | 38.61464 | 28.58392 | 35032 ft | 496 kts | 128° |
| 2026-05-04 13:22 | 38.56621 | 28.64689 | 35029 ft | 498 kts | 139° |
| 2026-05-04 13:23 | 38.51005 | 28.69882 | 35030 ft | 499 kts | 144° |
| 2026-05-04 13:23 | 38.45289 | 28.74900 | 35015 ft | 499 kts | 144° |
| 2026-05-04 13:24 | 38.39589 | 28.79951 | 35007 ft | 499 kts | 144° |
| 2026-05-04 13:24 | 38.33905 | 28.85020 | 35020 ft | 499 kts | 144° |
| 2026-05-04 13:25 | 38.25379 | 28.92615 | 35014 ft | 498 kts | 144° |
| 2026-05-04 13:25 | 38.19694 | 28.97664 | 35008 ft | 499 kts | 144° |
| 2026-05-04 13:26 | 38.13996 | 29.02713 | 35019 ft | 500 kts | 144° |
| 2026-05-04 13:26 | 38.08281 | 29.07767 | 35014 ft | 502 kts | 144° |
| 2026-05-04 13:27 | 38.02539 | 29.12835 | 34998 ft | 503 kts | 144° |
| 2026-05-04 13:27 | 37.96791 | 29.17900 | 34994 ft | 502 kts | 145° |
| 2026-05-04 13:28 | 37.91057 | 29.22943 | 34997 ft | 501 kts | 145° |
| 2026-05-04 13:28 | 37.85360 | 29.27944 | 35002 ft | 505 kts | 145° |
| 2026-05-04 13:29 | 37.79539 | 29.33037 | 35016 ft | 510 kts | 145° |
| 2026-05-04 13:29 | 37.73675 | 29.38156 | 35000 ft | 514 kts | 145° |
| 2026-05-04 13:30 | 37.67795 | 29.43281 | 34998 ft | 511 kts | 145° |
| 2026-05-04 13:30 | 37.62009 | 29.48316 | 34977 ft | 501 kts | 145° |
| 2026-05-04 13:31 | 37.56272 | 29.53299 | 34984 ft | 501 kts | 145° |
| 2026-05-04 13:31 | 37.50520 | 29.58286 | 34992 ft | 503 kts | 145° |
| 2026-05-04 13:32 | 37.44734 | 29.63292 | 34986 ft | 506 kts | 146° |
| 2026-05-04 13:32 | 37.38926 | 29.68309 | 34964 ft | 508 kts | 145° |
| 2026-05-04 13:33 | 37.33087 | 29.73343 | 34959 ft | 509 kts | 145° |
| 2026-05-04 13:33 | 37.27242 | 29.78391 | 34952 ft | 510 kts | 145° |
| 2026-05-04 13:34 | 37.21393 | 29.83439 | 34953 ft | 511 kts | 145° |
| 2026-05-04 13:34 | 37.15534 | 29.88487 | 34944 ft | 511 kts | 146° |
| 2026-05-04 13:35 | 37.07729 | 29.95183 | 34940 ft | 510 kts | 146° |
| 2026-05-04 13:36 | 37.01863 | 30.00182 | 34935 ft | 510 kts | 146° |
| 2026-05-04 13:36 | 36.96004 | 30.05166 | 34930 ft | 509 kts | 146° |
| 2026-05-04 13:37 | 36.90155 | 30.10139 | 34919 ft | 508 kts | 146° |
| 2026-05-04 13:37 | 36.84307 | 30.15101 | 34909 ft | 508 kts | 146° |
| 2026-05-04 13:38 | 36.78472 | 30.20048 | 34901 ft | 506 kts | 146° |
| 2026-05-04 13:38 | 36.72649 | 30.24982 | 34891 ft | 506 kts | 146° |
| 2026-05-04 13:39 | 36.66834 | 30.29902 | 34881 ft | 505 kts | 147° |
| 2026-05-04 13:39 | 36.61034 | 30.34799 | 34886 ft | 503 kts | 147° |
| 2026-05-04 13:40 | 36.55236 | 30.39685 | 34885 ft | 504 kts | 147° |
| 2026-05-04 13:40 | 36.49432 | 30.44566 | 34868 ft | 503 kts | 147° |
| 2026-05-04 13:41 | 36.43632 | 30.49436 | 34870 ft | 503 kts | 147° |
| 2026-05-04 13:41 | 36.37818 | 30.54309 | 34861 ft | 504 kts | 147° |
| 2026-05-04 13:42 | 36.29081 | 30.61616 | 34839 ft | 506 kts | 147° |
| 2026-05-04 13:42 | 36.23248 | 30.66483 | 34847 ft | 506 kts | 147° |
| 2026-05-04 13:43 | 36.17413 | 30.71343 | 34847 ft | 505 kts | 147° |
| 2026-05-04 13:43 | 36.11576 | 30.76196 | 34845 ft | 506 kts | 148° |
| 2026-05-04 13:44 | 36.05673 | 30.80909 | 34839 ft | 504 kts | 153° |
| 2026-05-04 13:44 | 35.99333 | 30.84369 | 34835 ft | 500 kts | 165° |
| 2026-05-04 13:45 | 35.92692 | 30.86871 | 34845 ft | 499 kts | 166° |
| 2026-05-04 13:45 | 35.86053 | 30.89358 | 34846 ft | 499 kts | 166° |
| 2026-05-04 13:46 | 35.79419 | 30.91882 | 34850 ft | 499 kts | 165° |
| 2026-05-04 13:46 | 35.72790 | 30.94423 | 34841 ft | 499 kts | 166° |
| 2026-05-04 13:47 | 35.66164 | 30.96962 | 34853 ft | 499 kts | 166° |
| 2026-05-04 13:47 | 35.59534 | 30.99495 | 34853 ft | 499 kts | 166° |
| 2026-05-04 13:48 | 35.52902 | 31.02024 | 34832 ft | 499 kts | 167° |
| 2026-05-04 13:48 | 35.46263 | 31.04551 | 34847 ft | 500 kts | 167° |
| 2026-05-04 13:49 | 35.39615 | 31.07076 | 34851 ft | 501 kts | 167° |
| 2026-05-04 13:49 | 35.32954 | 31.09601 | 34863 ft | 502 kts | 167° |
| 2026-05-04 13:50 | 35.26281 | 31.12128 | 34862 ft | 502 kts | 167° |
| 2026-05-04 13:50 | 35.19647 | 31.14636 | 34866 ft | 503 kts | 167° |
| 2026-05-04 13:51 | 35.12962 | 31.17158 | 34864 ft | 503 kts | 167° |
| 2026-05-04 13:51 | 35.06278 | 31.19676 | 34869 ft | 503 kts | 167° |
| 2026-05-04 13:52 | 34.96262 | 31.23442 | 34866 ft | 502 kts | 168° |
| 2026-05-04 13:53 | 34.89594 | 31.25943 | 34878 ft | 501 kts | 169° |
| 2026-05-04 13:53 | 34.82938 | 31.28435 | 34876 ft | 500 kts | 169° |
| 2026-05-04 13:54 | 34.72964 | 31.32163 | 34875 ft | 499 kts | 170° |
| 2026-05-04 13:55 | 34.63003 | 31.35874 | 34888 ft | 499 kts | 170° |
| 2026-05-04 13:55 | 34.53039 | 31.39578 | 34876 ft | 499 kts | 171° |
| 2026-05-04 13:56 | 34.46392 | 31.42043 | 34899 ft | 500 kts | 171° |
| 2026-05-04 13:57 | 34.36412 | 31.45737 | 34906 ft | 501 kts | 171° |
| 2026-05-04 13:58 | 34.23072 | 31.50663 | 34911 ft | 501 kts | 172° |
| 2026-05-04 13:58 | 34.13083 | 31.54337 | 34913 ft | 503 kts | 172° |
| 2026-05-04 13:59 | 34.06383 | 31.56799 | 34915 ft | 504 kts | 172° |
| 2026-05-04 14:00 | 33.96322 | 31.60488 | 34923 ft | 504 kts | 172° |
| 2026-05-04 14:00 | 33.86266 | 31.64166 | 34926 ft | 503 kts | 172° |
| 2026-05-04 14:01 | 33.79572 | 31.66610 | 34887 ft | 503 kts | 172° |
| 2026-05-04 14:02 | 33.69546 | 31.70244 | 34936 ft | 502 kts | 172° |
| 2026-05-04 14:02 | 33.62854 | 31.72662 | 34943 ft | 502 kts | 172° |
| 2026-05-04 14:03 | 33.56155 | 31.75081 | 34943 ft | 503 kts | 172° |
| 2026-05-04 14:03 | 33.49457 | 31.77499 | 34946 ft | 503 kts | 173° |
| 2026-05-04 14:04 | 33.39399 | 31.81120 | 34960 ft | 503 kts | 173° |
| 2026-05-04 14:04 | 33.32704 | 31.83532 | 34942 ft | 502 kts | 173° |
| 2026-05-04 14:05 | 33.22700 | 31.87131 | 34949 ft | 498 kts | 173° |
| 2026-05-04 14:06 | 33.16121 | 31.89490 | 34961 ft | 496 kts | 173° |
| 2026-05-04 14:06 | 33.09526 | 31.91851 | 34967 ft | 494 kts | 173° |
| 2026-05-04 14:07 | 33.02947 | 31.94202 | 34945 ft | 492 kts | 173° |
| 2026-05-04 14:07 | 32.96397 | 31.96540 | 34974 ft | 491 kts | 173° |
| 2026-05-04 14:08 | 32.89867 | 31.98867 | 34978 ft | 490 kts | 173° |
| 2026-05-04 14:08 | 32.83330 | 32.01192 | 34982 ft | 490 kts | 173° |
| 2026-05-04 14:09 | 32.73522 | 32.04677 | 34990 ft | 490 kts | 173° |
| 2026-05-04 14:10 | 32.63759 | 32.08624 | 34987 ft | 505 kts | 163° |
| 2026-05-04 14:10 | 32.57633 | 32.12926 | 34999 ft | 519 kts | 153° |
| 2026-05-04 14:11 | 32.51790 | 32.17983 | 34945 ft | 520 kts | 152° |
| 2026-05-04 14:11 | 32.43042 | 32.25514 | 35001 ft | 517 kts | 153° |
| 2026-05-04 14:12 | 32.37200 | 32.30459 | 35000 ft | 516 kts | 153° |
| 2026-05-04 14:13 | 32.28449 | 32.37845 | 35020 ft | 515 kts | 153° |
| 2026-05-04 14:13 | 32.22624 | 32.42758 | 34998 ft | 514 kts | 153° |
| 2026-05-04 14:14 | 32.16816 | 32.47649 | 35012 ft | 511 kts | 153° |
| 2026-05-04 14:14 | 32.08171 | 32.54908 | 35019 ft | 510 kts | 153° |
| 2026-05-04 14:15 | 31.96617 | 32.64584 | 35021 ft | 509 kts | 153° |
| 2026-05-04 14:16 | 31.87971 | 32.71807 | 35016 ft | 507 kts | 154° |
| 2026-05-04 14:17 | 31.79344 | 32.78998 | 35029 ft | 506 kts | 154° |
| 2026-05-04 14:18 | 31.70714 | 32.86172 | 35030 ft | 507 kts | 154° |
| 2026-05-04 14:19 | 31.59198 | 32.95722 | 34997 ft | 507 kts | 154° |
| 2026-05-04 14:19 | 31.53445 | 33.00484 | 35021 ft | 506 kts | 155° |
| 2026-05-04 14:20 | 31.47684 | 33.05242 | 35036 ft | 507 kts | 155° |
| 2026-05-04 14:20 | 31.41923 | 33.09996 | 35033 ft | 507 kts | 155° |
| 2026-05-04 14:21 | 31.33120 | 33.16690 | 35021 ft | 496 kts | 162° |
| 2026-05-04 14:21 | 31.27035 | 33.20475 | 35030 ft | 495 kts | 162° |
| 2026-05-04 14:22 | 31.20990 | 33.24223 | 35040 ft | 495 kts | 162° |
| 2026-05-04 14:22 | 31.14914 | 33.28026 | 35034 ft | 496 kts | 162° |
| 2026-05-04 14:23 | 31.05800 | 33.33756 | 35038 ft | 496 kts | 162° |
| 2026-05-04 14:24 | 30.99723 | 33.37571 | 35008 ft | 496 kts | 162° |
| 2026-05-04 14:24 | 30.93654 | 33.41373 | 35029 ft | 495 kts | 162° |
| 2026-05-04 14:25 | 30.87586 | 33.45167 | 35034 ft | 495 kts | 162° |
| 2026-05-04 14:25 | 30.78480 | 33.50851 | 35032 ft | 495 kts | 162° |
| 2026-05-04 14:26 | 30.73433 | 33.53996 | 35020 ft | 496 kts | 162° |
| 2026-05-04 14:26 | 30.67358 | 33.57779 | 35029 ft | 495 kts | 162° |
| 2026-05-04 14:27 | 30.61282 | 33.61554 | 35030 ft | 495 kts | 162° |
| 2026-05-04 14:27 | 30.55202 | 33.65326 | 35026 ft | 496 kts | 162° |
| 2026-05-04 14:28 | 30.49120 | 33.69096 | 35002 ft | 496 kts | 162° |
| 2026-05-04 14:28 | 30.43046 | 33.72857 | 34992 ft | 494 kts | 162° |
| 2026-05-04 14:29 | 30.30924 | 33.80340 | 35021 ft | 494 kts | 162° |
| 2026-05-04 14:30 | 30.24860 | 33.84076 | 35025 ft | 494 kts | 162° |
| 2026-05-04 14:31 | 30.15760 | 33.89674 | 34986 ft | 494 kts | 162° |
| 2026-05-04 14:32 | 30.03628 | 33.97119 | 35015 ft | 494 kts | 162° |
| 2026-05-04 14:32 | 29.97557 | 34.00837 | 35031 ft | 494 kts | 162° |
| 2026-05-04 14:33 | 29.91477 | 34.04555 | 35026 ft | 495 kts | 162° |
| 2026-05-04 14:33 | 29.85398 | 34.08267 | 34989 ft | 494 kts | 161° |
| 2026-05-04 14:34 | 29.79318 | 34.11976 | 35017 ft | 494 kts | 161° |
| 2026-05-04 14:34 | 29.73237 | 34.15679 | 35032 ft | 494 kts | 161° |
| 2026-05-04 14:35 | 29.67156 | 34.19383 | 35013 ft | 494 kts | 160° |
| 2026-05-04 14:35 | 29.64320 | 34.21704 | 35012 ft | 513 kts | 143° |
| 2026-05-04 14:35 | 29.62095 | 34.24993 | 35030 ft | 533 kts | 124° |
| 2026-05-04 14:35 | 29.60732 | 34.29008 | 35042 ft | 547 kts | 106° |
| 2026-05-04 14:36 | 29.60373 | 34.33383 | 35031 ft | 554 kts | 91° |
| 2026-05-04 14:36 | 29.60654 | 34.42248 | 35043 ft | 557 kts | 90° |
| 2026-05-04 14:37 | 29.60739 | 34.51164 | 35020 ft | 559 kts | 92° |
| 2026-05-04 14:37 | 29.60461 | 34.55582 | 35015 ft | 551 kts | 107° |
| 2026-05-04 14:37 | 29.59274 | 34.59698 | 35036 ft | 538 kts | 122° |
| 2026-05-04 14:37 | 29.57386 | 34.63343 | 35030 ft | 526 kts | 135° |
| 2026-05-04 14:38 | 29.54939 | 34.66371 | 35020 ft | 507 kts | 150° |
| 2026-05-04 14:38 | 29.49373 | 34.71268 | 35034 ft | 508 kts | 150° |
| 2026-05-04 14:38 | 29.46812 | 34.74042 | 34977 ft | 523 kts | 137° |
| 2026-05-04 14:39 | 29.44771 | 34.77558 | 35012 ft | 537 kts | 123° |
| 2026-05-04 14:39 | 29.43380 | 34.81566 | 35002 ft | 546 kts | 109° |
| 2026-05-04 14:39 | 29.42749 | 34.85880 | 35028 ft | 550 kts | 100° |
| 2026-05-04 14:40 | 29.42367 | 34.99063 | 35026 ft | 556 kts | 87° |
| 2026-05-04 14:40 | 29.43702 | 35.07819 | 35020 ft | 559 kts | 76° |
| 2026-05-04 14:41 | 29.45833 | 35.16410 | 35033 ft | 560 kts | 74° |
| 2026-05-04 14:42 | 29.49991 | 35.33639 | 35058 ft | 560 kts | 76° |
| 2026-05-04 14:42 | 29.51996 | 35.42272 | 35028 ft | 559 kts | 76° |
| 2026-05-04 14:43 | 29.54007 | 35.50895 | 35019 ft | 559 kts | 75° |
| 2026-05-04 14:43 | 29.56038 | 35.59512 | 35022 ft | 560 kts | 75° |
| 2026-05-04 14:44 | 29.58072 | 35.68150 | 35017 ft | 561 kts | 75° |
| 2026-05-04 14:44 | 29.60098 | 35.76800 | 35044 ft | 561 kts | 75° |
| 2026-05-04 14:45 | 29.61914 | 35.85530 | 35021 ft | 562 kts | 80° |
| 2026-05-04 14:45 | 29.63339 | 35.94367 | 35016 ft | 563 kts | 81° |
| 2026-05-04 14:46 | 29.64742 | 36.03236 | 35012 ft | 564 kts | 81° |
| 2026-05-04 14:46 | 29.66171 | 36.12047 | 35000 ft | 565 kts | 81° |
| 2026-05-04 14:47 | 29.67619 | 36.20921 | 35005 ft | 565 kts | 81° |
| 2026-05-04 14:47 | 29.69058 | 36.29803 | 35005 ft | 566 kts | 81° |
| 2026-05-04 14:48 | 29.70491 | 36.38700 | 34996 ft | 566 kts | 81° |
| 2026-05-04 14:48 | 29.71940 | 36.47611 | 34994 ft | 567 kts | 81° |
| 2026-05-04 14:49 | 29.73387 | 36.56515 | 34983 ft | 566 kts | 81° |
| 2026-05-04 14:49 | 29.74489 | 36.65462 | 34991 ft | 563 kts | 91° |
| 2026-05-04 14:50 | 29.74128 | 36.74364 | 34995 ft | 556 kts | 103° |
| 2026-05-04 14:50 | 29.72520 | 36.82964 | 35033 ft | 547 kts | 109° |
| 2026-05-04 14:51 | 29.70731 | 36.91478 | 34987 ft | 548 kts | 109° |
| 2026-05-04 14:51 | 29.68987 | 37.00003 | 34940 ft | 547 kts | 109° |
| 2026-05-04 14:52 | 29.67281 | 37.08505 | 34971 ft | 545 kts | 109° |
| 2026-05-04 14:52 | 29.65580 | 37.16988 | 34975 ft | 544 kts | 109° |
| 2026-05-04 14:53 | 29.63874 | 37.25448 | 34953 ft | 542 kts | 109° |
| 2026-05-04 14:53 | 29.62162 | 37.33884 | 34956 ft | 541 kts | 109° |
| 2026-05-04 14:54 | 29.60448 | 37.42306 | 34968 ft | 542 kts | 109° |
| 2026-05-04 14:54 | 29.58724 | 37.50748 | 34952 ft | 544 kts | 109° |
| 2026-05-04 14:55 | 29.57000 | 37.59161 | 34960 ft | 546 kts | 109° |
| 2026-05-04 14:55 | 29.55253 | 37.67661 | 34959 ft | 548 kts | 109° |
| 2026-05-04 14:56 | 29.53484 | 37.76238 | 34941 ft | 549 kts | 109° |
| 2026-05-04 14:56 | 29.51730 | 37.84717 | 34937 ft | 550 kts | 109° |
| 2026-05-04 14:57 | 29.49959 | 37.93252 | 34934 ft | 550 kts | 109° |
| 2026-05-04 14:57 | 29.48196 | 38.01795 | 34934 ft | 550 kts | 109° |
| 2026-05-04 14:58 | 29.46646 | 38.10408 | 34937 ft | 552 kts | 107° |
| 2026-05-04 14:58 | 29.45173 | 38.19046 | 34934 ft | 551 kts | 107° |
| 2026-05-04 14:59 | 29.43665 | 38.27660 | 34933 ft | 550 kts | 108° |
| 2026-05-04 15:00 | 29.41351 | 38.40543 | 34932 ft | 550 kts | 108° |
| 2026-05-04 15:00 | 29.39805 | 38.49104 | 34939 ft | 549 kts | 108° |
| 2026-05-04 15:01 | 29.37472 | 38.61981 | 34946 ft | 550 kts | 108° |
| 2026-05-04 15:01 | 29.35908 | 38.70582 | 34926 ft | 551 kts | 108° |
| 2026-05-04 15:02 | 29.34341 | 38.79162 | 34947 ft | 551 kts | 108° |
| 2026-05-04 15:02 | 29.32765 | 38.87766 | 34954 ft | 552 kts | 108° |
| 2026-05-04 15:03 | 29.31112 | 38.96342 | 34953 ft | 549 kts | 109° |
| 2026-05-04 15:03 | 29.29308 | 39.04837 | 34952 ft | 548 kts | 110° |
| 2026-05-04 15:04 | 29.27493 | 39.13312 | 34931 ft | 548 kts | 110° |
| 2026-05-04 15:04 | 29.25703 | 39.21778 | 34958 ft | 546 kts | 109° |
| 2026-05-04 15:05 | 29.23925 | 39.30226 | 34955 ft | 545 kts | 109° |
| 2026-05-04 15:05 | 29.22143 | 39.38658 | 34945 ft | 544 kts | 110° |
| 2026-05-04 15:06 | 29.20357 | 39.47072 | 34950 ft | 544 kts | 110° |
| 2026-05-04 15:07 | 29.17669 | 39.59678 | 34933 ft | 543 kts | 110° |
| 2026-05-04 15:07 | 29.15872 | 39.68072 | 34943 ft | 543 kts | 110° |
| 2026-05-04 15:08 | 29.14070 | 39.76467 | 34942 ft | 543 kts | 110° |
| 2026-05-04 15:08 | 29.12215 | 39.84824 | 34945 ft | 538 kts | 115° |
| 2026-05-04 15:08 | 29.10805 | 39.88729 | 34943 ft | 526 kts | 126° |
| 2026-05-04 15:09 | 29.08956 | 39.92230 | 34953 ft | 517 kts | 134° |
| 2026-05-04 15:09 | 29.04247 | 39.98186 | 34952 ft | 499 kts | 147° |
| 2026-05-04 15:10 | 28.96546 | 40.06252 | 34931 ft | 502 kts | 146° |
| 2026-05-04 15:11 | 28.88867 | 40.14443 | 34935 ft | 505 kts | 146° |
| 2026-05-04 15:11 | 28.83751 | 40.19927 | 34935 ft | 505 kts | 146° |
| 2026-05-04 15:12 | 28.78630 | 40.25409 | 34885 ft | 504 kts | 146° |
| 2026-05-04 15:12 | 28.73521 | 40.30867 | 34929 ft | 503 kts | 146° |
| 2026-05-04 15:13 | 28.68424 | 40.36301 | 34925 ft | 501 kts | 146° |
| 2026-05-04 15:13 | 28.64191 | 40.40807 | 34929 ft | 501 kts | 146° |
| 2026-05-04 15:14 | 28.59107 | 40.46212 | 34934 ft | 500 kts | 146° |
| 2026-05-04 15:14 | 28.54022 | 40.51611 | 34924 ft | 500 kts | 147° |
| 2026-05-04 15:15 | 28.48936 | 40.57002 | 34934 ft | 500 kts | 147° |
| 2026-05-04 15:15 | 28.43846 | 40.62391 | 34936 ft | 501 kts | 147° |
| 2026-05-04 15:16 | 28.36192 | 40.70481 | 34935 ft | 502 kts | 147° |
| 2026-05-04 15:17 | 28.28505 | 40.78590 | 34938 ft | 503 kts | 147° |
| 2026-05-04 15:17 | 28.20802 | 40.86701 | 34937 ft | 504 kts | 147° |
| 2026-05-04 15:18 | 28.15656 | 40.92110 | 34918 ft | 504 kts | 147° |
| 2026-05-04 15:19 | 28.07938 | 41.00208 | 34934 ft | 504 kts | 147° |
| 2026-05-04 15:19 | 28.00227 | 41.08282 | 34928 ft | 503 kts | 147° |
| 2026-05-04 15:20 | 27.95081 | 41.13663 | 34915 ft | 504 kts | 147° |
| 2026-05-04 15:20 | 27.89964 | 41.19005 | 34933 ft | 504 kts | 147° |
| 2026-05-04 15:21 | 27.84807 | 41.24385 | 34936 ft | 505 kts | 147° |
| 2026-05-04 15:22 | 27.77051 | 41.32471 | 34943 ft | 506 kts | 147° |
| 2026-05-04 15:22 | 27.69292 | 41.40544 | 34936 ft | 506 kts | 147° |
| 2026-05-04 15:23 | 27.64106 | 41.45931 | 34946 ft | 507 kts | 147° |
| 2026-05-04 15:23 | 27.58909 | 41.51320 | 34946 ft | 508 kts | 147° |
| 2026-05-04 15:24 | 27.48478 | 41.62124 | 34926 ft | 510 kts | 147° |
| 2026-05-04 15:25 | 27.43392 | 41.67753 | 34938 ft | 520 kts | 139° |
| 2026-05-04 15:26 | 27.37241 | 41.78048 | 34949 ft | 534 kts | 128° |
| 2026-05-04 15:26 | 27.31672 | 41.88886 | 34956 ft | 533 kts | 128° |
| 2026-05-04 15:27 | 27.26026 | 41.99626 | 34914 ft | 531 kts | 129° |
| 2026-05-04 15:28 | 27.20367 | 42.10318 | 34953 ft | 531 kts | 129° |
| 2026-05-04 15:29 | 27.14698 | 42.21021 | 34944 ft | 532 kts | 129° |
| 2026-05-04 15:30 | 27.01398 | 42.45981 | 34935 ft | 534 kts | 129° |
| 2026-05-04 15:31 | 26.95655 | 42.56695 | 34932 ft | 534 kts | 129° |
| 2026-05-04 15:32 | 26.86115 | 42.74449 | 34915 ft | 530 kts | 129° |
| 2026-05-04 15:34 | 26.76619 | 42.92040 | 34915 ft | 527 kts | 130° |
| 2026-05-04 15:34 | 26.70929 | 43.02548 | 34897 ft | 527 kts | 130° |
| 2026-05-04 15:35 | 26.65233 | 43.13049 | 34903 ft | 526 kts | 130° |
| 2026-05-04 15:36 | 26.59531 | 43.23548 | 34887 ft | 527 kts | 129° |
| 2026-05-04 15:36 | 26.55730 | 43.30546 | 34902 ft | 527 kts | 129° |
| 2026-05-04 15:37 | 26.51951 | 43.37493 | 34881 ft | 527 kts | 129° |
| 2026-05-04 15:37 | 26.48144 | 43.44480 | 34872 ft | 527 kts | 129° |
| 2026-05-04 15:38 | 26.44334 | 43.51462 | 34871 ft | 527 kts | 129° |
| 2026-05-04 15:38 | 26.40520 | 43.58440 | 34869 ft | 527 kts | 129° |
| 2026-05-04 15:39 | 26.36701 | 43.65415 | 34849 ft | 527 kts | 129° |
| 2026-05-04 15:40 | 26.30969 | 43.75869 | 34849 ft | 527 kts | 129° |
| 2026-05-04 15:40 | 26.27397 | 43.83050 | 34867 ft | 532 kts | 124° |
| 2026-05-04 15:41 | 26.24049 | 43.90426 | 34859 ft | 533 kts | 124° |
| 2026-05-04 15:41 | 26.20703 | 43.97797 | 34860 ft | 533 kts | 124° |
| 2026-05-04 15:42 | 26.17326 | 44.05155 | 34857 ft | 533 kts | 124° |
| 2026-05-04 15:42 | 26.13939 | 44.12493 | 34870 ft | 533 kts | 124° |
| 2026-05-04 15:43 | 26.10575 | 44.19769 | 34866 ft | 533 kts | 124° |
| 2026-05-04 15:43 | 26.07186 | 44.27093 | 34868 ft | 532 kts | 124° |
| 2026-05-04 15:44 | 26.03796 | 44.34407 | 34868 ft | 532 kts | 124° |
| 2026-05-04 15:44 | 26.00409 | 44.41703 | 34865 ft | 531 kts | 124° |
| 2026-05-04 15:45 | 25.97023 | 44.48985 | 34867 ft | 530 kts | 124° |
| 2026-05-04 15:45 | 25.93636 | 44.56256 | 34873 ft | 530 kts | 124° |
| 2026-05-04 15:46 | 25.90250 | 44.63516 | 34868 ft | 529 kts | 124° |
| 2026-05-04 15:46 | 25.86862 | 44.70770 | 34874 ft | 529 kts | 124° |
| 2026-05-04 15:47 | 25.83470 | 44.78007 | 34881 ft | 528 kts | 124° |
| 2026-05-04 15:47 | 25.80072 | 44.85239 | 34883 ft | 528 kts | 124° |
| 2026-05-04 15:48 | 25.76670 | 44.92470 | 34878 ft | 529 kts | 124° |
| 2026-05-04 15:48 | 25.71564 | 45.03308 | 34869 ft | 529 kts | 124° |
| 2026-05-04 15:49 | 25.68180 | 45.10477 | 34872 ft | 528 kts | 124° |
| 2026-05-04 15:49 | 25.64766 | 45.17695 | 34871 ft | 529 kts | 124° |
| 2026-05-04 15:50 | 25.61344 | 45.24913 | 34879 ft | 529 kts | 124° |
| 2026-05-04 15:50 | 25.57930 | 45.32108 | 34880 ft | 529 kts | 124° |
| 2026-05-04 15:51 | 25.54503 | 45.39320 | 34870 ft | 529 kts | 124° |
| 2026-05-04 15:51 | 25.51073 | 45.46529 | 34872 ft | 529 kts | 124° |
| 2026-05-04 15:52 | 25.47645 | 45.53722 | 34890 ft | 529 kts | 124° |
| 2026-05-04 15:52 | 25.44210 | 45.60916 | 34874 ft | 528 kts | 124° |
| 2026-05-04 15:53 | 25.40776 | 45.68099 | 34877 ft | 527 kts | 124° |
| 2026-05-04 15:53 | 25.37345 | 45.75266 | 34875 ft | 527 kts | 124° |
| 2026-05-04 15:54 | 25.33971 | 45.82459 | 34882 ft | 529 kts | 122° |
| 2026-05-04 15:54 | 25.30869 | 45.89834 | 34873 ft | 529 kts | 120° |
| 2026-05-04 15:55 | 25.27821 | 45.97219 | 34883 ft | 528 kts | 120° |
| 2026-05-04 15:55 | 25.24727 | 46.04567 | 34890 ft | 527 kts | 121° |
| 2026-05-04 15:56 | 25.21608 | 46.11883 | 34873 ft | 527 kts | 121° |
| 2026-05-04 15:56 | 25.18484 | 46.19189 | 34889 ft | 525 kts | 120° |
| 2026-05-04 15:57 | 25.15368 | 46.26475 | 34892 ft | 524 kts | 121° |
| 2026-05-04 15:57 | 25.12256 | 46.33746 | 34890 ft | 524 kts | 121° |
| 2026-05-04 15:58 | 25.09163 | 46.40957 | 34874 ft | 523 kts | 121° |
| 2026-05-04 15:58 | 25.06051 | 46.48203 | 34887 ft | 522 kts | 120° |
| 2026-05-04 15:59 | 25.02939 | 46.55439 | 34893 ft | 522 kts | 121° |
| 2026-05-04 15:59 | 24.99826 | 46.62666 | 34880 ft | 522 kts | 121° |
| 2026-05-04 16:00 | 24.96799 | 46.69944 | 34864 ft | 523 kts | 118° |
| 2026-05-04 16:00 | 24.94027 | 46.77364 | 34880 ft | 524 kts | 117° |
| 2026-05-04 16:01 | 24.91288 | 46.84803 | 34889 ft | 524 kts | 117° |
| 2026-05-04 16:01 | 24.88523 | 46.92229 | 34885 ft | 524 kts | 117° |
| 2026-05-04 16:02 | 24.85735 | 46.99655 | 34867 ft | 524 kts | 117° |
| 2026-05-04 16:03 | 24.81553 | 47.10757 | 34865 ft | 522 kts | 117° |
| 2026-05-04 16:03 | 24.78793 | 47.18073 | 34858 ft | 521 kts | 117° |
| 2026-05-04 16:04 | 24.76018 | 47.25419 | 34864 ft | 519 kts | 117° |
| 2026-05-04 16:04 | 24.71865 | 47.36386 | 34850 ft | 517 kts | 117° |
| 2026-05-04 16:05 | 24.69099 | 47.43675 | 34856 ft | 517 kts | 117° |
| 2026-05-04 16:06 | 24.65409 | 47.53379 | 34856 ft | 517 kts | 117° |
| 2026-05-04 16:07 | 24.59849 | 47.67960 | 34838 ft | 519 kts | 116° |
| 2026-05-04 16:08 | 24.54347 | 47.82636 | 34827 ft | 520 kts | 114° |
| 2026-05-04 16:09 | 24.48288 | 48.01333 | 34825 ft | 519 kts | 113° |
| 2026-05-04 16:10 | 24.43406 | 48.16213 | 34818 ft | 518 kts | 113° |
| 2026-05-04 16:11 | 24.38504 | 48.31075 | 34805 ft | 519 kts | 113° |
| 2026-05-04 16:12 | 24.31084 | 48.53476 | 34797 ft | 522 kts | 113° |
| 2026-05-04 16:13 | 24.26103 | 48.68450 | 34790 ft | 523 kts | 113° |
| 2026-05-04 16:14 | 24.21136 | 48.83324 | 34782 ft | 520 kts | 113° |
| 2026-05-04 16:16 | 24.15295 | 49.02041 | 34781 ft | 520 kts | 109° |
| 2026-05-04 16:17 | 24.10037 | 49.20937 | 34792 ft | 518 kts | 110° |
| 2026-05-04 16:18 | 24.05716 | 49.35991 | 34790 ft | 519 kts | 110° |
| 2026-05-04 16:19 | 24.00296 | 49.54814 | 34793 ft | 519 kts | 110° |
| 2026-05-04 16:20 | 23.94849 | 49.73644 | 34793 ft | 520 kts | 110° |
| 2026-05-04 16:22 | 23.89392 | 49.92414 | 34791 ft | 519 kts | 110° |
| 2026-05-04 16:23 | 23.82807 | 50.14937 | 34796 ft | 518 kts | 110° |
| 2026-05-04 16:25 | 23.76207 | 50.37381 | 34794 ft | 517 kts | 110° |
| 2026-05-04 16:26 | 23.68482 | 50.63477 | 34788 ft | 516 kts | 110° |
| 2026-05-04 16:28 | 23.62939 | 50.82096 | 34784 ft | 516 kts | 110° |
| 2026-05-04 16:29 | 23.55136 | 51.08151 | 34783 ft | 517 kts | 110° |
| 2026-05-04 16:31 | 23.49543 | 51.26722 | 34787 ft | 516 kts | 110° |
| 2026-05-04 16:32 | 23.42807 | 51.48970 | 34788 ft | 516 kts | 110° |
| 2026-05-04 16:33 | 23.38296 | 51.63796 | 34790 ft | 516 kts | 110° |
| 2026-05-04 16:34 | 23.34906 | 51.74903 | 34792 ft | 516 kts | 110° |
| 2026-05-04 16:35 | 23.28116 | 51.97058 | 34783 ft | 516 kts | 110° |
| 2026-05-04 16:36 | 23.24701 | 52.08154 | 34785 ft | 515 kts | 110° |
| 2026-05-04 16:37 | 23.21282 | 52.19230 | 34787 ft | 515 kts | 110° |
| 2026-05-04 16:38 | 23.16718 | 52.33976 | 34786 ft | 514 kts | 110° |
| 2026-05-04 16:39 | 23.16022 | 52.45482 | 34790 ft | 515 kts | 77° |
| 2026-05-04 16:39 | 23.17608 | 52.52999 | 34779 ft | 514 kts | 90° |
| 2026-05-04 16:40 | 23.15929 | 52.60520 | 34789 ft | 517 kts | 112° |
| 2026-05-04 16:40 | 23.13629 | 52.67985 | 34790 ft | 524 kts | 107° |
| 2026-05-04 16:41 | 23.08768 | 52.86771 | 34787 ft | 515 kts | 107° |
| 2026-05-04 16:43 | 23.03740 | 53.05414 | 34783 ft | 517 kts | 107° |
| 2026-05-04 16:43 | 23.00699 | 53.16648 | 34777 ft | 518 kts | 107° |
| 2026-05-04 16:45 | 22.94590 | 53.39127 | 34789 ft | 518 kts | 107° |
| 2026-05-04 16:46 | 22.89481 | 53.57823 | 34773 ft | 516 kts | 107° |
| 2026-05-04 16:47 | 22.85390 | 53.72727 | 34779 ft | 515 kts | 107° |
| 2026-05-04 16:48 | 22.81290 | 53.87603 | 34772 ft | 515 kts | 107° |
| 2026-05-04 16:49 | 22.78828 | 54.02727 | 34781 ft | 514 kts | 86° |
| 2026-05-04 16:50 | 22.81669 | 54.17869 | 34777 ft | 514 kts | 76° |
| 2026-05-04 16:51 | 22.84036 | 54.29211 | 34769 ft | 515 kts | 76° |
| 2026-05-04 16:52 | 22.87083 | 54.44378 | 34772 ft | 515 kts | 76° |
| 2026-05-04 16:53 | 22.89364 | 54.55763 | 34766 ft | 515 kts | 76° |
| 2026-05-04 16:54 | 22.92395 | 54.70940 | 34769 ft | 515 kts | 76° |
| 2026-05-04 16:55 | 22.96661 | 54.92449 | 34767 ft | 515 kts | 76° |
| 2026-05-04 16:56 | 23.00409 | 55.11476 | 34777 ft | 516 kts | 76° |
| 2026-05-04 16:57 | 23.04231 | 55.22075 | 34788 ft | 501 kts | 43° |
| 2026-05-04 16:58 | 23.13049 | 55.27387 | 34796 ft | 481 kts | 10° |
| 2026-05-04 16:58 | 23.16309 | 55.28260 | 34789 ft | 484 kts | 9° |
| 2026-05-04 17:00 | 23.35975 | 55.33898 | 34782 ft | 491 kts | 11° |
| 2026-05-04 17:01 | 23.52419 | 55.38741 | 34795 ft | 489 kts | 11° |
| 2026-05-04 17:02 | 23.65266 | 55.42568 | 34769 ft | 454 kts | 11° |
| 2026-05-04 17:03 | 23.74217 | 55.45227 | 34801 ft | 444 kts | 10° |
| 2026-05-04 17:03 | 23.83079 | 55.47867 | 33993 ft | 435 kts | 10° |
| 2026-05-04 17:04 | 23.88885 | 55.49597 | 33132 ft | 429 kts | 10° |
| 2026-05-04 17:04 | 23.94615 | 55.51300 | 32247 ft | 424 kts | 10° |
| 2026-05-04 17:05 | 24.00187 | 55.53363 | 31379 ft | 426 kts | 22° |
| 2026-05-04 17:05 | 24.05077 | 55.57054 | 30567 ft | 430 kts | 37° |
| 2026-05-04 17:06 | 24.09467 | 55.61458 | 29769 ft | 426 kts | 38° |
| 2026-05-04 17:06 | 24.11631 | 55.63651 | 29313 ft | 423 kts | 38° |
| 2026-05-04 17:07 | 24.15934 | 55.67968 | 28491 ft | 416 kts | 38° |
| 2026-05-04 17:07 | 24.17348 | 55.69375 | 28224 ft | 414 kts | 38° |
| 2026-05-04 17:07 | 24.20187 | 55.72194 | 27678 ft | 410 kts | 38° |
| 2026-05-04 17:07 | 24.22290 | 55.74281 | 27274 ft | 407 kts | 38° |
| 2026-05-04 17:08 | 24.24382 | 55.76355 | 26872 ft | 404 kts | 38° |
| 2026-05-04 17:08 | 24.28515 | 55.80460 | 26105 ft | 398 kts | 39° |
| 2026-05-04 17:08 | 24.30558 | 55.82490 | 25750 ft | 395 kts | 39° |
| 2026-05-04 17:09 | 24.32585 | 55.84506 | 25380 ft | 393 kts | 39° |
| 2026-05-04 17:09 | 24.34603 | 55.86513 | 25021 ft | 390 kts | 39° |
| 2026-05-04 17:09 | 24.36576 | 55.88477 | 24661 ft | 388 kts | 39° |
| 2026-05-04 17:10 | 24.40543 | 55.92434 | 23974 ft | 383 kts | 39° |
| 2026-05-04 17:10 | 24.46394 | 55.98284 | 22873 ft | 375 kts | 40° |
| 2026-05-04 17:11 | 24.48315 | 56.00206 | 22524 ft | 372 kts | 40° |
| 2026-05-04 17:11 | 24.50217 | 56.02110 | 22146 ft | 368 kts | 40° |
| 2026-05-04 17:11 | 24.53967 | 56.05866 | 21431 ft | 362 kts | 40° |
| 2026-05-04 17:12 | 24.55821 | 56.07720 | 21079 ft | 359 kts | 40° |
| 2026-05-04 17:12 | 24.59558 | 56.11261 | 20329 ft | 349 kts | 28° |
| 2026-05-04 17:13 | 24.66365 | 56.13357 | 19252 ft | 335 kts | 6° |
| 2026-05-04 17:14 | 24.73206 | 56.14565 | 18252 ft | 329 kts | 7° |
| 2026-05-04 17:14 | 24.75452 | 56.14976 | 17879 ft | 326 kts | 7° |
| 2026-05-04 17:14 | 24.79898 | 56.15279 | 16967 ft | 319 kts | 346° |
| 2026-05-04 17:15 | 24.81988 | 56.14499 | 16556 ft | 317 kts | 335° |
| 2026-05-04 17:15 | 24.85970 | 56.12480 | 15795 ft | 313 kts | 334° |
| 2026-05-04 17:16 | 24.89910 | 56.10486 | 15090 ft | 310 kts | 335° |
| 2026-05-04 17:16 | 24.95705 | 56.07596 | 14408 ft | 294 kts | 335° |
| 2026-05-04 17:17 | 24.97478 | 56.06572 | 14170 ft | 285 kts | 321° |
| 2026-05-04 17:17 | 25.01455 | 56.01793 | 13206 ft | 280 kts | 313° |
| 2026-05-04 17:18 | 25.02755 | 56.00202 | 12884 ft | 279 kts | 313° |
| 2026-05-04 17:18 | 25.05327 | 55.97077 | 12242 ft | 275 kts | 313° |
| 2026-05-04 17:19 | 25.07884 | 55.93956 | 11573 ft | 273 kts | 313° |
| 2026-05-04 17:19 | 25.10407 | 55.90856 | 10949 ft | 270 kts | 313° |
| 2026-05-04 17:20 | 25.12906 | 55.87788 | 10338 ft | 268 kts | 313° |
| 2026-05-04 17:20 | 25.15399 | 55.84725 | 9674 ft | 268 kts | 313° |
| 2026-05-04 17:20 | 25.16500 | 55.83076 | 9322 ft | 268 kts | 302° |
| 2026-05-04 17:21 | 25.17626 | 55.79299 | 8779 ft | 263 kts | 263° |
| 2026-05-04 17:21 | 25.15756 | 55.75840 | 8367 ft | 272 kts | 211° |
| 2026-05-04 17:22 | 25.13983 | 55.75317 | 8186 ft | 264 kts | 177° |
| 2026-05-04 17:22 | 25.12275 | 55.75887 | 7954 ft | 254 kts | 147° |
| 2026-05-04 17:23 | 25.09156 | 55.80073 | 7356 ft | 224 kts | 118° |
| 2026-05-04 17:23 | 25.08366 | 55.81532 | 7187 ft | 220 kts | 119° |
| 2026-05-04 17:23 | 25.06759 | 55.84401 | 6857 ft | 219 kts | 128° |
| 2026-05-04 17:24 | 25.05511 | 55.85315 | 6621 ft | 223 kts | 169° |
| 2026-05-04 17:24 | 25.01357 | 55.83357 | 6154 ft | 216 kts | 231° |
| 2026-05-04 17:25 | 25.00735 | 55.81914 | 5998 ft | 208 kts | 267° |
| 2026-05-04 17:25 | 25.01539 | 55.78952 | 5708 ft | 207 kts | 303° |
| 2026-05-04 17:26 | 25.03054 | 55.76283 | 5363 ft | 201 kts | 303° |
| 2026-05-04 17:26 | 25.05234 | 55.72454 | 4904 ft | 198 kts | 303° |
| 2026-05-04 17:27 | 25.06712 | 55.69845 | 4611 ft | 203 kts | 304° |
| 2026-05-04 17:27 | 25.08210 | 55.67243 | 4256 ft | 198 kts | 303° |
| 2026-05-04 17:28 | 25.09628 | 55.64708 | 3960 ft | 199 kts | 302° |
| 2026-05-04 17:29 | 25.11809 | 55.60776 | 3475 ft | 201 kts | 302° |
| 2026-05-04 17:29 | 25.13970 | 55.56878 | 3011 ft | 196 kts | 301° |
| 2026-05-04 17:30 | 25.16087 | 55.53057 | 2550 ft | 194 kts | 301° |
| 2026-05-04 17:31 | 25.17482 | 55.50538 | 2202 ft | 194 kts | 301° |
| 2026-05-04 17:31 | 25.19418 | 55.47039 | 1533 ft | 158 kts | 301° |
| 2026-05-04 17:32 | 25.20569 | 55.44956 | 1162 ft | 160 kts | 301° |
| 2026-05-04 17:33 | 25.22319 | 55.41805 | 513 ft | 161 kts | 300° |
| 2026-05-04 17:33 | 25.22892 | 55.40755 | 322 ft | 158 kts | 298° |
| 2026-05-04 17:34 | 25.24479 | 55.37882 | 29 ft | 101 kts | 301° |
| 2026-05-04 17:34 | 25.24744 | 55.37401 | 27 ft | 42 kts | 299° |
| 2026-05-04 17:35 | 25.24703 | 55.36912 | 31 ft | 15 kts | 208° |
| 2026-05-04 17:35 | 25.24521 | 55.36793 | 29 ft | 15 kts | 211° |
| 2026-05-04 17:35 | 25.24429 | 55.36734 | 28 ft | 15 kts | 201° |
| 2026-05-04 17:36 | 25.24344 | 55.36785 | 29 ft | 15 kts | 124° |
| 2026-05-04 17:36 | 25.24287 | 55.36884 | 30 ft | 15 kts | 122° |
| 2026-05-04 17:36 | 25.24231 | 55.36983 | 29 ft | 15 kts | 122° |
| 2026-05-04 17:36 | 25.24175 | 55.37083 | 30 ft | 15 kts | 122° |
| 2026-05-04 17:37 | 25.24119 | 55.37183 | 29 ft | 15 kts | 121° |
| 2026-05-04 17:37 | 25.24064 | 55.37284 | 29 ft | 15 kts | 122° |
| 2026-05-04 17:37 | 25.24071 | 55.37372 | 29 ft | 7 kts | 40° |
| 2026-05-04 17:37 | 25.24099 | 55.37394 | 29 ft | 4 kts | 33° |
| 2026-05-04 17:38 | 25.24113 | 55.37404 | 30 ft | 0 kts | 32° |